createdAt,value
2023-02-24T00:02:05.319Z,8.37
2023-02-24T00:04:39.508Z,8.34
2023-02-24T00:07:12.786Z,8.35
2023-02-24T00:09:40.264Z,8.33
2023-02-24T00:12:12.751Z,8.32
2023-02-24T00:14:43.629Z,8.30
2023-02-24T00:17:15.666Z,8.30
2023-02-24T00:19:43.136Z,8.31
2023-02-24T00:22:10.409Z,8.30
2023-02-24T00:24:37.523Z,8.30
2023-02-24T00:27:07.909Z,8.28
2023-02-24T00:29:37.690Z,8.27
2023-02-24T00:32:07.270Z,8.24
2023-02-24T00:34:37.572Z,8.23
2023-02-24T00:37:07.067Z,8.20
2023-02-24T00:39:35.799Z,8.21
2023-02-24T00:42:06.012Z,8.18
2023-02-24T00:44:37.819Z,8.18
2023-02-24T00:47:08.683Z,8.11
2023-02-24T00:49:42.148Z,8.13
2023-02-24T00:52:15.572Z,8.08
2023-02-24T00:54:44.120Z,8.07
2023-02-24T00:57:11.684Z,8.02
2023-02-24T00:59:39.266Z,8.00
2023-02-24T01:02:11.523Z,7.98
2023-02-24T01:04:38.750Z,7.96
2023-02-24T01:07:11.174Z,7.94
2023-02-24T01:09:41.444Z,7.93
2023-02-24T01:12:31.971Z,7.89
2023-02-24T01:14:58.930Z,7.85
2023-02-24T01:17:25.900Z,7.82
2023-02-24T01:19:53.333Z,7.79
2023-02-24T01:22:21.321Z,7.82
2023-02-24T01:24:48.809Z,7.77
2023-02-24T01:27:20.749Z,7.75
2023-02-24T01:29:48.365Z,7.69
2023-02-24T01:32:20.847Z,7.72
2023-02-24T01:34:52.070Z,7.69
2023-02-24T01:37:20.516Z,7.70
2023-02-24T01:39:48.370Z,7.66
2023-02-24T01:42:19.971Z,7.64
2023-02-24T01:44:47.535Z,7.66
2023-02-24T01:47:18.193Z,7.65
2023-02-24T01:49:48.343Z,7.63
2023-02-24T01:52:30.632Z,7.59
2023-02-24T01:55:07.169Z,7.61
2023-02-24T01:57:38.771Z,7.60
2023-02-24T02:00:12.251Z,7.59
2023-02-24T02:02:42.735Z,7.59
2023-02-24T02:05:11.594Z,7.59
2023-02-24T02:07:40.454Z,7.61
2023-02-24T02:10:10.071Z,7.61
2023-02-24T02:12:44.628Z,7.64
2023-02-24T02:15:20.248Z,7.63
2023-02-24T02:18:08.105Z,7.62
2023-02-24T02:21:32.668Z,7.64
2023-02-24T02:24:20.467Z,7.63
2023-02-24T02:27:21.165Z,7.62
2023-02-24T02:30:34.734Z,7.59
2023-02-24T02:33:39.967Z,7.60
2023-02-24T02:36:24.618Z,7.59
2023-02-24T02:39:08.715Z,7.60
2023-02-24T02:41:56.317Z,7.58
2023-02-24T02:44:41.672Z,7.60
2023-02-24T02:47:26.993Z,7.60
2023-02-24T02:50:36.004Z,7.60
2023-02-24T02:53:12.528Z,7.60
2023-02-24T02:55:53.547Z,7.58
2023-02-24T02:58:26.397Z,7.59
2023-02-24T03:01:04.587Z,7.55
2023-02-24T03:03:47.004Z,7.56
2023-02-24T03:06:28.272Z,7.50
2023-02-24T03:09:12.530Z,7.47
2023-02-24T03:11:40.285Z,7.44
2023-02-24T03:14:12.164Z,7.44
2023-02-24T03:16:46.229Z,7.44
2023-02-24T03:19:17.809Z,7.43
2023-02-24T03:21:48.540Z,7.43
2023-02-24T03:24:15.787Z,7.44
2023-02-24T03:27:06.372Z,7.34
2023-02-24T03:29:48.562Z,7.30
2023-02-24T03:32:51.312Z,7.33
2023-02-24T03:35:24.412Z,7.30
2023-02-24T03:37:53.370Z,7.29
2023-02-24T03:40:21.168Z,7.24
2023-02-24T03:42:52.531Z,7.22
2023-02-24T03:45:22.907Z,7.24
2023-02-24T03:47:54.144Z,7.28
2023-02-24T03:50:22.227Z,7.27
2023-02-24T03:53:35.709Z,7.19
2023-02-24T03:56:45.917Z,7.14
2023-02-24T03:59:49.359Z,7.11
2023-02-24T04:02:26.771Z,7.13
2023-02-24T04:05:13.808Z,7.11
2023-02-24T04:07:53.178Z,7.11
2023-02-24T04:10:31.595Z,7.16
2023-02-24T04:13:19.646Z,7.21
2023-02-24T04:15:59.077Z,7.16
2023-02-24T04:18:31.118Z,7.17
2023-02-24T04:21:01.108Z,7.21
2023-02-24T04:23:38.720Z,7.23
2023-02-24T04:26:07.101Z,7.22
2023-02-24T04:28:35.702Z,7.19
2023-02-24T04:31:10.179Z,7.18
2023-02-24T04:33:41.042Z,7.17
2023-02-24T04:36:09.206Z,7.18
2023-02-24T04:38:36.609Z,7.21
2023-02-24T04:41:03.821Z,7.30
2023-02-24T04:43:30.873Z,7.23
2023-02-24T04:45:57.933Z,7.24
2023-02-24T04:48:25.146Z,7.24
2023-02-24T04:50:55.224Z,7.23
2023-02-24T04:53:27.383Z,7.28
2023-02-24T04:55:56.253Z,7.17
2023-02-24T04:58:29.667Z,7.17
2023-02-24T05:00:57.365Z,7.12
2023-02-24T05:03:28.382Z,7.06
2023-02-24T05:06:00.361Z,7.18
2023-02-24T05:08:29.727Z,7.13
2023-02-24T05:10:58.896Z,7.09
2023-02-24T05:13:29.147Z,7.10
2023-02-24T05:16:08.073Z,7.12
2023-02-24T05:18:38.679Z,7.00
2023-02-24T05:21:29.484Z,6.99
2023-02-24T05:24:06.551Z,6.91
2023-02-24T05:26:37.039Z,6.83
2023-02-24T05:29:06.937Z,6.87
2023-02-24T05:31:34.858Z,6.80
2023-02-24T05:34:05.933Z,6.78
2023-02-24T05:36:45.948Z,6.92
2023-02-24T05:39:19.269Z,6.85
2023-02-24T05:41:49.381Z,6.81
2023-02-24T05:44:23.634Z,6.86
2023-02-24T05:46:58.416Z,6.86
2023-02-24T05:49:35.749Z,6.73
2023-02-24T05:52:09.057Z,6.64
2023-02-24T05:54:42.744Z,6.62
2023-02-24T05:57:13.782Z,6.69
2023-02-24T05:59:42.137Z,6.73
2023-02-24T06:02:13.265Z,6.78
2023-02-24T06:04:54.218Z,6.79
2023-02-24T06:07:25.793Z,6.76
2023-02-24T06:09:57.162Z,6.72
2023-02-24T06:12:36.210Z,6.69
2023-02-24T06:15:07.770Z,6.69
2023-02-24T06:17:35.208Z,6.65
2023-02-24T06:20:04.818Z,6.68
2023-02-24T06:22:33.843Z,6.69
2023-02-24T06:25:01.072Z,6.68
2023-02-24T06:27:28.067Z,6.74
2023-02-24T06:29:56.966Z,6.77
2023-02-24T06:32:26.550Z,6.72
2023-02-24T06:34:54.753Z,6.76
2023-02-24T06:37:23.419Z,6.72
2023-02-24T06:39:50.591Z,6.73
2023-02-24T06:42:17.733Z,6.82
2023-02-24T06:44:45.380Z,6.84
2023-02-24T06:47:14.771Z,6.81
2023-02-24T06:49:45.044Z,6.79
2023-02-24T06:52:18.756Z,6.86
2023-02-24T06:54:49.529Z,6.93
2023-02-24T06:57:16.925Z,6.97
2023-02-24T06:59:44.039Z,6.94
2023-02-24T07:02:11.708Z,6.89
2023-02-24T07:04:44.158Z,6.88
2023-02-24T07:07:14.561Z,6.91
2023-02-24T07:09:42.858Z,6.95
2023-02-24T07:12:12.754Z,6.91
2023-02-24T07:14:40.699Z,6.91
2023-02-24T07:17:08.963Z,6.97
2023-02-24T07:19:36.941Z,7.01
2023-02-24T07:22:04.257Z,7.06
2023-02-24T07:24:39.469Z,7.10
2023-02-24T07:27:22.402Z,7.11
2023-02-24T07:29:53.368Z,7.22
2023-02-24T07:32:22.664Z,7.22
2023-02-24T07:34:49.894Z,7.26
2023-02-24T07:37:17.089Z,7.20
2023-02-24T07:39:44.401Z,7.30
2023-02-24T07:42:13.931Z,7.29
2023-02-24T07:44:42.771Z,7.30
2023-02-24T07:47:10.181Z,7.24
2023-02-24T07:49:39.652Z,7.28
2023-02-24T07:52:08.330Z,7.36
2023-02-24T07:54:35.821Z,7.39
2023-02-24T07:57:03.297Z,7.44
2023-02-24T07:59:37.752Z,7.46
2023-02-24T08:02:07.823Z,7.46
2023-02-24T08:04:36.528Z,7.45
2023-02-24T08:07:04.731Z,7.45
2023-02-24T08:09:46.741Z,7.51
2023-02-24T08:12:22.002Z,7.54
2023-02-24T08:14:52.430Z,7.63
2023-02-24T08:17:21.482Z,7.67
2023-02-24T08:19:50.977Z,7.77
2023-02-24T08:22:21.006Z,7.73
2023-02-24T08:24:53.487Z,7.79
2023-02-24T08:27:25.666Z,7.81
2023-02-24T08:29:58.385Z,7.88
2023-02-24T08:32:27.539Z,7.99
2023-02-24T08:35:03.032Z,7.98
2023-02-24T08:37:39.876Z,7.92
2023-02-24T08:40:31.139Z,8.04
2023-02-24T08:43:17.597Z,8.13
2023-02-24T08:45:50.976Z,8.09
2023-02-24T08:48:26.484Z,8.05
2023-02-24T08:50:57.932Z,8.12
2023-02-24T08:53:31.539Z,8.11
2023-02-24T08:56:09.754Z,8.11
2023-02-24T08:58:49.129Z,8.01
2023-02-24T09:01:19.869Z,8.18
2023-02-24T09:03:55.259Z,8.56
2023-02-24T09:06:38.865Z,8.72
2023-02-24T09:09:18.816Z,8.77
2023-02-24T09:11:47.763Z,8.51
2023-02-24T09:14:28.233Z,8.52
2023-02-24T09:17:02.484Z,8.61
2023-02-24T09:19:48.345Z,8.89
2023-02-24T09:22:57.464Z,8.94
2023-02-24T09:25:40.954Z,9.26
2023-02-24T09:28:09.525Z,9.20
2023-02-24T09:30:53.460Z,9.35
2023-02-24T09:33:23.651Z,9.24
2023-02-24T09:36:09.989Z,9.38
2023-02-24T09:38:57.877Z,9.44
2023-02-24T09:42:08.227Z,9.38
2023-02-24T09:44:45.499Z,9.42
2023-02-24T09:47:37.164Z,9.48
2023-02-24T09:50:46.913Z,9.78
2023-02-24T09:53:17.654Z,9.94
2023-02-24T09:56:25.315Z,9.75
2023-02-24T09:59:10.425Z,9.98
2023-02-24T10:01:46.732Z,10.07
2023-02-24T10:04:49.422Z,10.25
2023-02-24T10:07:38.659Z,10.38
2023-02-24T10:10:19.900Z,10.18
2023-02-24T10:13:18.685Z,10.42
2023-02-24T10:15:58.699Z,10.47
2023-02-24T10:18:48.752Z,10.27
2023-02-24T10:21:48.472Z,10.39
2023-02-24T10:24:41.387Z,10.48
2023-02-24T10:27:33.404Z,10.57
2023-02-24T10:30:41.065Z,10.48
2023-02-24T10:33:37.871Z,10.77
2023-02-24T10:36:13.539Z,10.93
2023-02-24T10:38:45.478Z,11.03
2023-02-24T10:41:17.227Z,11.43
2023-02-24T10:43:56.391Z,11.61
2023-02-24T10:46:42.893Z,11.13
2023-02-24T10:49:16.944Z,10.90
2023-02-24T10:51:53.284Z,11.11
2023-02-24T10:57:19.389Z,10.80
2023-02-24T11:00:20.952Z,10.79
2023-02-24T11:03:11.369Z,10.95
2023-02-24T11:06:08.478Z,11.13
2023-02-24T11:08:44.338Z,11.00
2023-02-24T11:11:52.500Z,10.76
2023-02-24T11:14:38.849Z,10.71
2023-02-24T11:17:30.003Z,10.97
2023-02-24T11:20:19.584Z,10.99
2023-02-24T11:22:52.140Z,10.97
2023-02-24T11:25:39.674Z,11.20
2023-02-24T11:28:26.942Z,11.27
2023-02-24T11:31:25.198Z,11.45
2023-02-24T11:34:07.670Z,11.34
2023-02-24T11:36:54.580Z,11.56
2023-02-24T11:39:56.268Z,11.31
2023-02-24T11:42:36.784Z,11.35
2023-02-24T11:45:55.263Z,11.42
2023-02-24T11:48:39.976Z,11.49
2023-02-24T11:51:17.024Z,11.23
2023-02-24T11:53:55.831Z,11.54
2023-02-24T11:56:44.558Z,11.45
2023-02-24T11:59:42.699Z,11.43
2023-02-24T12:03:05.135Z,11.65
2023-02-24T12:05:40.642Z,11.71
2023-02-24T12:08:23.845Z,11.76
2023-02-24T12:11:01.961Z,11.71
2023-02-24T12:13:55.629Z,11.74
2023-02-24T12:16:45.942Z,12.18
2023-02-24T12:19:37.560Z,12.29
2023-02-24T12:22:16.717Z,12.58
2023-02-24T12:24:52.527Z,12.88
2023-02-24T12:27:54.928Z,13.20
2023-02-24T12:30:49.241Z,14.15
2023-02-24T12:33:44.969Z,13.57
2023-02-24T12:37:07.899Z,12.90
2023-02-24T12:39:48.141Z,12.96
2023-02-24T12:43:12.690Z,13.18
2023-02-24T12:45:54.216Z,13.59
2023-02-24T12:48:58.437Z,13.19
2023-02-24T12:51:49.291Z,12.93
2023-02-24T12:54:49.755Z,13.00
2023-02-24T12:57:42.480Z,13.05
2023-02-24T13:00:26.223Z,12.85
2023-02-24T13:03:13.969Z,13.02
2023-02-24T13:06:03.240Z,12.73
2023-02-24T13:09:14.932Z,12.81
2023-02-24T13:12:27.378Z,13.19
2023-02-24T13:14:54.820Z,13.17
2023-02-24T13:17:27.111Z,13.02
2023-02-24T13:19:55.855Z,13.36
2023-02-24T13:22:32.768Z,13.58
2023-02-24T13:25:08.616Z,13.20
2023-02-24T13:27:38.975Z,13.17
2023-02-24T13:30:11.271Z,13.17
2023-02-24T13:32:45.747Z,12.74
2023-02-24T13:35:15.581Z,13.07
2023-02-24T13:37:46.511Z,13.07
2023-02-24T13:40:18.942Z,12.91
2023-02-24T13:42:59.499Z,12.94
2023-02-24T13:45:39.824Z,12.98
2023-02-24T13:48:42.559Z,13.11
2023-02-24T13:51:46.521Z,13.09
2023-02-24T13:55:00.489Z,13.45
2023-02-24T13:57:49.018Z,13.56
2023-02-24T14:00:40.925Z,13.91
2023-02-24T14:03:21.144Z,13.93
2023-02-24T14:05:49.790Z,13.77
2023-02-24T14:08:25.763Z,13.77
2023-02-24T14:10:57.044Z,13.77
2023-02-24T14:13:34.108Z,13.51
2023-02-24T14:16:08.198Z,13.45
2023-02-24T14:18:36.709Z,13.52
2023-02-24T14:21:04.152Z,13.19
2023-02-24T14:23:35.464Z,13.48
2023-02-24T14:26:07.572Z,13.15
2023-02-24T14:28:40.052Z,13.32
2023-02-24T14:31:17.041Z,13.17
2023-02-24T14:33:46.216Z,13.08
2023-02-24T14:36:25.501Z,12.71
2023-02-24T14:39:16.348Z,13.13
2023-02-24T14:41:44.873Z,13.20
2023-02-24T14:44:30.504Z,13.45
2023-02-24T14:47:03.012Z,13.31
2023-02-24T14:49:36.407Z,13.48
2023-02-24T14:52:10.729Z,13.49
2023-02-24T14:55:17.716Z,13.10
2023-02-24T14:58:09.004Z,13.04
2023-02-24T15:00:43.754Z,13.05
2023-02-24T15:03:39.005Z,13.07
2023-02-24T15:06:20.066Z,13.36
2023-02-24T15:08:52.554Z,13.10
2023-02-24T15:11:23.513Z,13.19
2023-02-24T15:14:02.697Z,12.98
2023-02-24T15:16:40.033Z,13.09
2023-02-24T15:19:37.152Z,13.11
2023-02-24T15:22:41.547Z,12.71
2023-02-24T15:25:37.106Z,12.62
2023-02-24T15:28:31.388Z,12.35
2023-02-24T15:31:16.114Z,11.98
2023-02-24T15:33:53.818Z,12.14
2023-02-24T15:36:28.975Z,11.97
2023-02-24T15:39:05.046Z,11.81
2023-02-24T15:41:49.082Z,11.91
2023-02-24T15:44:32.258Z,11.62
2023-02-24T15:47:12.426Z,11.67
2023-02-24T15:49:42.156Z,11.73
2023-02-24T15:52:10.338Z,11.77
2023-02-24T15:54:42.722Z,11.69
2023-02-24T15:57:13.320Z,11.64
2023-02-24T15:59:41.347Z,11.49
2023-02-24T16:02:19.942Z,11.48
2023-02-24T16:04:48.511Z,11.41
2023-02-24T16:07:31.106Z,11.42
2023-02-24T16:09:59.942Z,11.26
2023-02-24T16:12:33.226Z,11.32
2023-02-24T16:15:04.336Z,11.34
2023-02-24T16:17:42.915Z,11.22
2023-02-24T16:20:18.572Z,11.12
2023-02-24T16:22:46.619Z,11.15
2023-02-24T16:27:50.422Z,10.82
2023-02-24T16:30:22.463Z,10.88
2023-02-24T16:32:51.230Z,10.82
2023-02-24T16:35:19.622Z,10.87
2023-02-24T16:37:48.965Z,10.73
2023-02-24T16:40:28.113Z,10.72
2023-02-24T16:42:55.255Z,10.67
2023-02-24T16:45:26.815Z,10.67
2023-02-24T16:47:57.679Z,10.67
2023-02-24T16:50:41.724Z,10.57
2023-02-24T16:53:13.344Z,10.47
2023-02-24T16:55:40.404Z,10.44
2023-02-24T16:58:07.384Z,10.38
2023-02-24T17:00:34.582Z,10.33
2023-02-24T17:03:17.250Z,10.23
2023-02-24T17:05:44.638Z,10.20
2023-02-24T17:08:12.459Z,10.16
2023-02-24T17:10:40.115Z,10.04
2023-02-24T17:13:07.686Z,9.93
2023-02-24T17:15:34.730Z,9.83
2023-02-24T17:18:02.250Z,9.82
2023-02-24T17:20:29.519Z,9.90
2023-02-24T17:22:56.554Z,9.85
2023-02-24T17:25:27.018Z,9.76
2023-02-24T17:27:55.720Z,9.68
2023-02-24T17:30:30.743Z,9.69
2023-02-24T17:32:58.284Z,9.67
2023-02-24T17:35:27.132Z,9.69
2023-02-24T17:37:54.568Z,9.72
2023-02-24T17:40:22.105Z,9.68
2023-02-24T17:42:49.229Z,9.63
2023-02-24T17:45:16.453Z,9.60
2023-02-24T17:47:49.481Z,9.56
2023-02-24T17:50:17.318Z,9.46
2023-02-24T17:52:44.864Z,9.51
2023-02-24T17:55:12.554Z,9.52
2023-02-24T17:57:40.016Z,9.48
2023-02-24T18:00:10.839Z,9.40
2023-02-24T18:02:38.677Z,9.45
2023-02-24T18:05:06.605Z,9.36
2023-02-24T18:07:34.072Z,9.33
2023-02-24T18:10:02.801Z,9.29
2023-02-24T18:12:32.752Z,9.26
2023-02-24T18:15:08.387Z,9.25
2023-02-24T18:17:38.830Z,9.23
2023-02-24T18:20:08.588Z,9.15
2023-02-24T18:22:36.316Z,9.10
2023-02-24T18:25:04.275Z,8.99
2023-02-24T18:27:31.376Z,9.04
2023-02-24T18:29:58.365Z,8.98
2023-02-24T18:32:25.604Z,8.87
2023-02-24T18:34:52.691Z,8.86
2023-02-24T18:37:20.166Z,8.85
2023-02-24T18:39:47.297Z,8.88
2023-02-24T18:42:14.285Z,8.85
2023-02-24T18:44:41.273Z,8.79
2023-02-24T18:47:09.850Z,8.87
2023-02-24T18:49:37.867Z,8.82
2023-02-24T18:52:07.472Z,8.74
2023-02-24T18:54:34.932Z,8.84
2023-02-24T18:57:02.226Z,8.88
2023-02-24T18:59:29.369Z,8.73
2023-02-24T19:01:57.089Z,8.72
2023-02-24T19:04:25.132Z,8.62
2023-02-24T19:06:52.223Z,8.62
2023-02-24T19:09:21.792Z,8.67
2023-02-24T19:11:50.218Z,8.57
2023-02-24T19:14:17.541Z,8.60
2023-02-24T19:16:45.410Z,8.58
2023-02-24T19:19:16.782Z,8.49
2023-02-24T19:21:48.442Z,8.59
2023-02-24T19:24:17.145Z,8.57
2023-02-24T19:26:45.910Z,8.53
2023-02-24T19:29:13.744Z,8.38
2023-02-24T19:31:41.016Z,8.12
2023-02-24T19:34:13.150Z,8.09
2023-02-24T19:36:41.378Z,8.04
2023-02-24T19:39:15.950Z,8.08
2023-02-24T19:41:43.211Z,8.06
2023-02-24T19:44:11.027Z,8.01
2023-02-24T19:46:39.088Z,8.07
2023-02-24T19:49:06.819Z,8.08
2023-02-24T19:51:35.417Z,8.10
2023-02-24T19:54:03.649Z,8.05
2023-02-24T19:56:35.698Z,7.85
2023-02-24T19:59:06.633Z,7.69
2023-02-24T20:01:34.117Z,7.61
2023-02-24T20:04:04.037Z,7.50
2023-02-24T20:06:37.642Z,7.54
2023-02-24T20:09:17.179Z,7.39
2023-02-24T20:11:45.946Z,7.30
2023-02-24T20:14:14.435Z,7.16
2023-02-24T20:16:43.003Z,7.23
2023-02-24T20:19:12.221Z,7.18
2023-02-24T20:21:40.375Z,7.14
2023-02-24T20:24:13.879Z,7.22
2023-02-24T20:26:46.366Z,7.09
2023-02-24T20:29:15.078Z,7.02
2023-02-24T20:31:42.537Z,7.06
2023-02-24T20:34:10.728Z,7.00
2023-02-24T20:36:38.261Z,6.98
2023-02-24T20:39:08.613Z,6.84
2023-02-24T20:41:35.657Z,6.93
2023-02-24T20:44:02.801Z,6.99
2023-02-24T20:46:32.370Z,6.88
2023-02-24T20:49:04.141Z,6.86
2023-02-24T20:51:32.805Z,6.77
2023-02-24T20:54:00.479Z,6.81
2023-02-24T20:56:33.195Z,6.83
2023-02-24T20:59:04.515Z,6.86
2023-02-24T21:01:33.043Z,6.88
2023-02-24T21:04:00.869Z,6.88
2023-02-24T21:06:29.067Z,6.79
2023-02-24T21:08:57.453Z,6.73
2023-02-24T21:11:24.896Z,6.67
2023-02-24T21:13:52.615Z,6.67
2023-02-24T21:16:21.236Z,6.57
2023-02-24T21:18:50.600Z,6.48
2023-02-24T21:21:19.541Z,6.55
2023-02-24T21:23:47.177Z,6.50
2023-02-24T21:26:14.898Z,6.55
2023-02-24T21:28:42.032Z,6.39
2023-02-24T21:31:16.056Z,6.44
2023-02-24T21:33:43.568Z,6.49
2023-02-24T21:36:15.853Z,6.36
2023-02-24T21:38:42.938Z,6.45
2023-02-24T21:41:14.974Z,6.42
2023-02-24T21:43:44.241Z,6.38
2023-02-24T21:46:14.395Z,6.32
2023-02-24T21:48:42.019Z,6.34
2023-02-24T21:51:11.967Z,6.28
2023-02-24T21:53:41.941Z,6.26
2023-02-24T21:56:17.461Z,6.24
2023-02-24T21:58:54.127Z,6.25
2023-02-24T22:01:32.838Z,6.21
2023-02-24T22:04:03.244Z,6.34
2023-02-24T22:06:32.124Z,6.26
2023-02-24T22:09:00.385Z,6.31
2023-02-24T22:11:27.681Z,6.37
2023-02-24T22:13:54.658Z,6.37
2023-02-24T22:16:25.344Z,6.38
2023-02-24T22:18:54.656Z,6.36
2023-02-24T22:21:28.109Z,6.37
2023-02-24T22:23:59.904Z,6.37
2023-02-24T22:26:29.141Z,6.36
2023-02-24T22:28:56.779Z,6.41
2023-02-24T22:31:29.087Z,6.38
2023-02-24T22:33:56.805Z,6.41
2023-02-24T22:36:27.507Z,6.35
2023-02-24T22:38:59.603Z,6.31
2023-02-24T22:41:33.110Z,6.43
2023-02-24T22:44:02.198Z,6.37
2023-02-24T22:46:33.435Z,6.42
2023-02-24T22:49:00.883Z,6.40
2023-02-24T22:51:28.520Z,6.37
2023-02-24T22:53:56.444Z,6.38
2023-02-24T22:56:27.201Z,6.36
2023-02-24T22:58:55.100Z,6.38
2023-02-24T23:01:32.176Z,6.32
2023-02-24T23:04:01.489Z,6.35
2023-02-24T23:06:29.275Z,6.34
2023-02-24T23:08:58.423Z,6.33
2023-02-24T23:11:31.787Z,6.39
2023-02-24T23:14:04.011Z,6.37
2023-02-24T23:16:34.289Z,6.35
2023-02-24T23:19:06.684Z,6.31
2023-02-24T23:21:38.444Z,6.30
2023-02-24T23:24:08.113Z,6.29
2023-02-24T23:26:43.701Z,6.24
2023-02-24T23:29:14.445Z,6.25
2023-02-24T23:31:42.426Z,6.24
2023-02-24T23:34:10.272Z,6.18
2023-02-24T23:36:40.891Z,6.23
2023-02-24T23:39:09.182Z,6.17
2023-02-24T23:41:38.073Z,6.11
2023-02-24T23:44:06.185Z,6.05
2023-02-24T23:46:35.200Z,6.00
2023-02-24T23:49:02.340Z,5.91
2023-02-24T23:51:45.713Z,5.87
2023-02-24T23:54:14.497Z,5.82
2023-02-24T23:56:41.569Z,5.76
2023-02-24T23:59:08.759Z,5.72
